<?xml version='1.0' encoding='utf-8'?>
<gpx xmlns="http://www.topografix.com/GPX/1/1" xmlns:xsi="http://www.w3.org/2001/XMLSchema-instance" version="1.1" creator="RunGap 1138 with Barometer" xsi:schemaLocation="http://www.topografix.com/GPX/1/1 http://www.topografix.com/GPX/1/1/gpx.xsd http://www.garmin.com/xmlschemas/GpxExtensions/v3 http://www.garmin.com/xmlschemas/GpxExtensionsv3.xsd http://www.garmin.com/xmlschemas/TrackPointExtension/v1 http://www.garmin.com/xmlschemas/TrackPointExtensionv1.xsd">
  <trk>
    <name>Vejers Strand</name>
    <type>Jogging</type>
    <trkseg>
      <trkpt lat="55.6259730" lon="8.1325340"><ele>3.9</ele>
        <time>2026-08-05T05:06:47Z</time>
      </trkpt><trkpt lat="55.6258050" lon="8.1324020"><ele>3.9</ele>
        <time>2026-08-05T05:07:04Z</time>
      </trkpt><trkpt lat="55.6257090" lon="8.1323670"><ele>3.9</ele>
        <time>2026-08-05T05:07:10Z</time>
      </trkpt><trkpt lat="55.6255240" lon="8.1323200"><ele>3.9</ele>
        <time>2026-08-05T05:07:22Z</time>
      </trkpt><trkpt lat="55.6253290" lon="8.1322270"><ele>3.9</ele>
        <time>2026-08-05T05:07:35Z</time>
      </trkpt><trkpt lat="55.6251350" lon="8.1321540"><ele>3.9</ele>
        <time>2026-08-05T05:07:49Z</time>
      </trkpt><trkpt lat="55.6249390" lon="8.1320610"><ele>4.0</ele>
        <time>2026-08-05T05:08:03Z</time>
      </trkpt><trkpt lat="55.6248570" lon="8.1319720"><ele>4.0</ele>
        <time>2026-08-05T05:08:10Z</time>
      </trkpt><trkpt lat="55.6248350" lon="8.1317950"><ele>4.0</ele>
        <time>2026-08-05T05:08:16Z</time>
      </trkpt><trkpt lat="55.6248340" lon="8.1314500"><ele>4.0</ele>
        <time>2026-08-05T05:08:30Z</time>
      </trkpt><trkpt lat="55.6248030" lon="8.1312800"><ele>4.0</ele>
        <time>2026-08-05T05:08:36Z</time>
      </trkpt><trkpt lat="55.6247130" lon="8.1312320"><ele>4.0</ele>
        <time>2026-08-05T05:08:42Z</time>
      </trkpt><trkpt lat="55.6246070" lon="8.1312400"><ele>4.0</ele>
        <time>2026-08-05T05:08:49Z</time>
      </trkpt><trkpt lat="55.6244090" lon="8.1312470"><ele>4.0</ele>
        <time>2026-08-05T05:09:00Z</time>
      </trkpt><trkpt lat="55.6242040" lon="8.1312620"><ele>4.0</ele>
        <time>2026-08-05T05:09:12Z</time>
      </trkpt><trkpt lat="55.6240040" lon="8.1312800"><ele>4.1</ele>
        <time>2026-08-05T05:09:24Z</time>
      </trkpt><trkpt lat="55.6238050" lon="8.1312850"><ele>4.1</ele>
        <time>2026-08-05T05:09:36Z</time>
      </trkpt><trkpt lat="55.6236160" lon="8.1312800"><ele>4.1</ele>
        <time>2026-08-05T05:09:48Z</time>
      </trkpt><trkpt lat="55.6234290" lon="8.1312590"><ele>4.0</ele>
        <time>2026-08-05T05:10:00Z</time>
      </trkpt><trkpt lat="55.6232340" lon="8.1311930"><ele>4.0</ele>
        <time>2026-08-05T05:10:13Z</time>
      </trkpt><trkpt lat="55.6230500" lon="8.1310720"><ele>4.0</ele>
        <time>2026-08-05T05:10:26Z</time>
      </trkpt><trkpt lat="55.6228870" lon="8.1308780"><ele>4.0</ele>
        <time>2026-08-05T05:10:38Z</time>
      </trkpt><trkpt lat="55.6227310" lon="8.1306730"><ele>3.9</ele>
        <time>2026-08-05T05:10:51Z</time>
      </trkpt><trkpt lat="55.6225740" lon="8.1306420"><ele>3.9</ele>
        <time>2026-08-05T05:11:05Z</time>
      </trkpt><trkpt lat="55.6225250" lon="8.1307830"><ele>3.9</ele>
        <time>2026-08-05T05:11:11Z</time>
      </trkpt><trkpt lat="55.6224620" lon="8.1310930"><ele>3.9</ele>
        <time>2026-08-05T05:11:23Z</time>
      </trkpt><trkpt lat="55.6224150" lon="8.1314260"><ele>3.8</ele>
        <time>2026-08-05T05:11:35Z</time>
      </trkpt><trkpt lat="55.6223480" lon="8.1317560"><ele>3.9</ele>
        <time>2026-08-05T05:11:48Z</time>
      </trkpt><trkpt lat="55.6222890" lon="8.1320710"><ele>4.1</ele>
        <time>2026-08-05T05:12:00Z</time>
      </trkpt><trkpt lat="55.6222330" lon="8.1323880"><ele>4.2</ele>
        <time>2026-08-05T05:12:13Z</time>
      </trkpt><trkpt lat="55.6221360" lon="8.1324370"><ele>4.3</ele>
        <time>2026-08-05T05:12:22Z</time>
      </trkpt><trkpt lat="55.6220450" lon="8.1324210"><ele>4.4</ele>
        <time>2026-08-05T05:12:28Z</time>
      </trkpt><trkpt lat="55.6218680" lon="8.1323120"><ele>4.5</ele>
        <time>2026-08-05T05:12:41Z</time>
      </trkpt><trkpt lat="55.6217650" lon="8.1323210"><ele>4.6</ele>
        <time>2026-08-05T05:12:49Z</time>
      </trkpt><trkpt lat="55.6215760" lon="8.1322610"><ele>4.8</ele>
        <time>2026-08-05T05:13:02Z</time>
      </trkpt><trkpt lat="55.6214830" lon="8.1321920"><ele>4.8</ele>
        <time>2026-08-05T05:13:08Z</time>
      </trkpt><trkpt lat="55.6214180" lon="8.1320740"><ele>4.9</ele>
        <time>2026-08-05T05:13:14Z</time>
      </trkpt><trkpt lat="55.6213290" lon="8.1320110"><ele>5.0</ele>
        <time>2026-08-05T05:13:20Z</time>
      </trkpt><trkpt lat="55.6211540" lon="8.1318670"><ele>5.1</ele>
        <time>2026-08-05T05:13:33Z</time>
      </trkpt><trkpt lat="55.6209800" lon="8.1317070"><ele>5.3</ele>
        <time>2026-08-05T05:13:46Z</time>
      </trkpt><trkpt lat="55.6208770" lon="8.1317140"><ele>5.3</ele>
        <time>2026-08-05T05:13:53Z</time>
      </trkpt><trkpt lat="55.6207990" lon="8.1317980"><ele>5.4</ele>
        <time>2026-08-05T05:13:59Z</time>
      </trkpt><trkpt lat="55.6207380" lon="8.1319310"><ele>5.4</ele>
        <time>2026-08-05T05:14:05Z</time>
      </trkpt><trkpt lat="55.6206240" lon="8.1322060"><ele>5.5</ele>
        <time>2026-08-05T05:14:17Z</time>
      </trkpt><trkpt lat="55.6205080" lon="8.1324850"><ele>5.6</ele>
        <time>2026-08-05T05:14:29Z</time>
      </trkpt><trkpt lat="55.6203860" lon="8.1327740"><ele>5.6</ele>
        <time>2026-08-05T05:14:43Z</time>
      </trkpt><trkpt lat="55.6202700" lon="8.1330490"><ele>5.7</ele>
        <time>2026-08-05T05:14:55Z</time>
      </trkpt><trkpt lat="55.6201760" lon="8.1330950"><ele>5.8</ele>
        <time>2026-08-05T05:15:01Z</time>
      </trkpt><trkpt lat="55.6200720" lon="8.1330940"><ele>5.8</ele>
        <time>2026-08-05T05:15:08Z</time>
      </trkpt><trkpt lat="55.6199840" lon="8.1330520"><ele>5.9</ele>
        <time>2026-08-05T05:15:14Z</time>
      </trkpt><trkpt lat="55.6197990" lon="8.1329260"><ele>5.9</ele>
        <time>2026-08-05T05:15:27Z</time>
      </trkpt><trkpt lat="55.6196270" lon="8.1328030"><ele>6.0</ele>
        <time>2026-08-05T05:15:39Z</time>
      </trkpt><trkpt lat="55.6194470" lon="8.1326610"><ele>6.1</ele>
        <time>2026-08-05T05:15:52Z</time>
      </trkpt><trkpt lat="55.6192650" lon="8.1324710"><ele>6.3</ele>
        <time>2026-08-05T05:16:05Z</time>
      </trkpt><trkpt lat="55.6190900" lon="8.1322980"><ele>6.4</ele>
        <time>2026-08-05T05:16:18Z</time>
      </trkpt><trkpt lat="55.6190260" lon="8.1321710"><ele>6.4</ele>
        <time>2026-08-05T05:16:25Z</time>
      </trkpt><trkpt lat="55.6189320" lon="8.1320950"><ele>6.5</ele>
        <time>2026-08-05T05:16:31Z</time>
      </trkpt><trkpt lat="55.6187550" lon="8.1319900"><ele>6.6</ele>
        <time>2026-08-05T05:16:44Z</time>
      </trkpt><trkpt lat="55.6186510" lon="8.1319230"><ele>6.7</ele>
        <time>2026-08-05T05:16:50Z</time>
      </trkpt><trkpt lat="55.6185750" lon="8.1318260"><ele>6.7</ele>
        <time>2026-08-05T05:16:56Z</time>
      </trkpt><trkpt lat="55.6183960" lon="8.1316730"><ele>6.8</ele>
        <time>2026-08-05T05:17:09Z</time>
      </trkpt><trkpt lat="55.6182230" lon="8.1314980"><ele>7.0</ele>
        <time>2026-08-05T05:17:22Z</time>
      </trkpt><trkpt lat="55.6180600" lon="8.1313240"><ele>7.1</ele>
        <time>2026-08-05T05:17:34Z</time>
      </trkpt><trkpt lat="55.6178780" lon="8.1311830"><ele>7.2</ele>
        <time>2026-08-05T05:17:48Z</time>
      </trkpt><trkpt lat="55.6177770" lon="8.1311060"><ele>7.2</ele>
        <time>2026-08-05T05:17:55Z</time>
      </trkpt><trkpt lat="55.6176020" lon="8.1309330"><ele>7.3</ele>
        <time>2026-08-05T05:18:07Z</time>
      </trkpt><trkpt lat="55.6174250" lon="8.1307530"><ele>7.4</ele>
        <time>2026-08-05T05:18:20Z</time>
      </trkpt><trkpt lat="55.6172440" lon="8.1306060"><ele>7.5</ele>
        <time>2026-08-05T05:18:33Z</time>
      </trkpt><trkpt lat="55.6170710" lon="8.1304260"><ele>7.6</ele>
        <time>2026-08-05T05:18:47Z</time>
      </trkpt><trkpt lat="55.6169800" lon="8.1303160"><ele>7.6</ele>
        <time>2026-08-05T05:18:54Z</time>
      </trkpt><trkpt lat="55.6168020" lon="8.1301840"><ele>7.7</ele>
        <time>2026-08-05T05:19:07Z</time>
      </trkpt><trkpt lat="55.6166280" lon="8.1300110"><ele>7.8</ele>
        <time>2026-08-05T05:19:20Z</time>
      </trkpt><trkpt lat="55.6164480" lon="8.1298850"><ele>7.9</ele>
        <time>2026-08-05T05:19:32Z</time>
      </trkpt><trkpt lat="55.6162630" lon="8.1297360"><ele>7.7</ele>
        <time>2026-08-05T05:19:44Z</time>
      </trkpt><trkpt lat="55.6160880" lon="8.1295730"><ele>7.4</ele>
        <time>2026-08-05T05:19:57Z</time>
      </trkpt><trkpt lat="55.6159130" lon="8.1293980"><ele>7.2</ele>
        <time>2026-08-05T05:20:11Z</time>
      </trkpt><trkpt lat="55.6157410" lon="8.1292220"><ele>7.0</ele>
        <time>2026-08-05T05:20:24Z</time>
      </trkpt><trkpt lat="55.6155680" lon="8.1290900"><ele>6.8</ele>
        <time>2026-08-05T05:20:36Z</time>
      </trkpt><trkpt lat="55.6154860" lon="8.1289790"><ele>6.7</ele>
        <time>2026-08-05T05:20:43Z</time>
      </trkpt><trkpt lat="55.6153140" lon="8.1288010"><ele>6.5</ele>
        <time>2026-08-05T05:20:55Z</time>
      </trkpt><trkpt lat="55.6152570" lon="8.1286770"><ele>6.4</ele>
        <time>2026-08-05T05:21:02Z</time>
      </trkpt><trkpt lat="55.6152300" lon="8.1285050"><ele>6.3</ele>
        <time>2026-08-05T05:21:09Z</time>
      </trkpt><trkpt lat="55.6151730" lon="8.1283480"><ele>6.2</ele>
        <time>2026-08-05T05:21:17Z</time>
      </trkpt><trkpt lat="55.6150590" lon="8.1280700"><ele>5.9</ele>
        <time>2026-08-05T05:21:30Z</time>
      </trkpt><trkpt lat="55.6149150" lon="8.1278620"><ele>6.0</ele>
        <time>2026-08-05T05:21:43Z</time>
      </trkpt><trkpt lat="55.6148310" lon="8.1277890"><ele>6.1</ele>
        <time>2026-08-05T05:21:49Z</time>
      </trkpt><trkpt lat="55.6147530" lon="8.1276800"><ele>6.1</ele>
        <time>2026-08-05T05:21:56Z</time>
      </trkpt><trkpt lat="55.6145930" lon="8.1274730"><ele>6.3</ele>
        <time>2026-08-05T05:22:22Z</time>
      </trkpt><trkpt lat="55.6144350" lon="8.1273120"><ele>6.4</ele>
        <time>2026-08-05T05:22:36Z</time>
      </trkpt><trkpt lat="55.6143460" lon="8.1273440"><ele>6.4</ele>
        <time>2026-08-05T05:22:43Z</time>
      </trkpt><trkpt lat="55.6144420" lon="8.1273040"><ele>6.5</ele>
        <time>2026-08-05T05:22:59Z</time>
      </trkpt><trkpt lat="55.6145070" lon="8.1271080"><ele>6.6</ele>
        <time>2026-08-05T05:23:15Z</time>
      </trkpt><trkpt lat="55.6145170" lon="8.1269290"><ele>6.6</ele>
        <time>2026-08-05T05:23:22Z</time>
      </trkpt><trkpt lat="55.6145970" lon="8.1268300"><ele>6.7</ele>
        <time>2026-08-05T05:23:30Z</time>
      </trkpt><trkpt lat="55.6146870" lon="8.1267900"><ele>6.8</ele>
        <time>2026-08-05T05:23:37Z</time>
      </trkpt><trkpt lat="55.6147550" lon="8.1266810"><ele>6.8</ele>
        <time>2026-08-05T05:23:43Z</time>
      </trkpt><trkpt lat="55.6147890" lon="8.1265040"><ele>6.9</ele>
        <time>2026-08-05T05:23:51Z</time>
      </trkpt><trkpt lat="55.6148770" lon="8.1261610"><ele>7.0</ele>
        <time>2026-08-05T05:24:07Z</time>
      </trkpt><trkpt lat="55.6149620" lon="8.1258240"><ele>7.0</ele>
        <time>2026-08-05T05:24:22Z</time>
      </trkpt><trkpt lat="55.6150550" lon="8.1255160"><ele>7.0</ele>
        <time>2026-08-05T05:24:36Z</time>
      </trkpt><trkpt lat="55.6150310" lon="8.1253440"><ele>7.0</ele>
        <time>2026-08-05T05:24:43Z</time>
      </trkpt><trkpt lat="55.6149570" lon="8.1252400"><ele>7.1</ele>
        <time>2026-08-05T05:24:49Z</time>
      </trkpt><trkpt lat="55.6148070" lon="8.1249870"><ele>7.1</ele>
        <time>2026-08-05T05:25:03Z</time>
      </trkpt><trkpt lat="55.6146890" lon="8.1247220"><ele>7.1</ele>
        <time>2026-08-05T05:25:16Z</time>
      </trkpt><trkpt lat="55.6145540" lon="8.1244440"><ele>7.1</ele>
        <time>2026-08-05T05:25:30Z</time>
      </trkpt><trkpt lat="55.6144290" lon="8.1241620"><ele>7.2</ele>
        <time>2026-08-05T05:25:44Z</time>
      </trkpt><trkpt lat="55.6142970" lon="8.1238890"><ele>7.2</ele>
        <time>2026-08-05T05:25:58Z</time>
      </trkpt><trkpt lat="55.6141790" lon="8.1236020"><ele>7.2</ele>
        <time>2026-08-05T05:26:11Z</time>
      </trkpt><trkpt lat="55.6140630" lon="8.1233410"><ele>7.3</ele>
        <time>2026-08-05T05:26:24Z</time>
      </trkpt><trkpt lat="55.6139460" lon="8.1230560"><ele>7.4</ele>
        <time>2026-08-05T05:26:37Z</time>
      </trkpt><trkpt lat="55.6138240" lon="8.1227780"><ele>7.4</ele>
        <time>2026-08-05T05:26:51Z</time>
      </trkpt><trkpt lat="55.6136930" lon="8.1225410"><ele>7.5</ele>
        <time>2026-08-05T05:27:12Z</time>
      </trkpt><trkpt lat="55.6135930" lon="8.1222380"><ele>7.5</ele>
        <time>2026-08-05T05:27:26Z</time>
      </trkpt><trkpt lat="55.6135190" lon="8.1219030"><ele>7.6</ele>
        <time>2026-08-05T05:27:40Z</time>
      </trkpt><trkpt lat="55.6134590" lon="8.1217620"><ele>7.6</ele>
        <time>2026-08-05T05:27:48Z</time>
      </trkpt><trkpt lat="55.6133940" lon="8.1214730"><ele>7.7</ele>
        <time>2026-08-05T05:28:13Z</time>
      </trkpt><trkpt lat="55.6134710" lon="8.1215670"><ele>7.7</ele>
        <time>2026-08-05T05:28:48Z</time>
      </trkpt><trkpt lat="55.6135630" lon="8.1215230"><ele>7.8</ele>
        <time>2026-08-05T05:28:52Z</time>
      </trkpt><trkpt lat="55.6136000" lon="8.1213670"><ele>7.8</ele>
        <time>2026-08-05T05:28:58Z</time>
      </trkpt><trkpt lat="55.6136600" lon="8.1212290"><ele>7.7</ele>
        <time>2026-08-05T05:29:05Z</time>
      </trkpt><trkpt lat="55.6137610" lon="8.1209270"><ele>7.4</ele>
        <time>2026-08-05T05:29:18Z</time>
      </trkpt><trkpt lat="55.6138600" lon="8.1206260"><ele>7.1</ele>
        <time>2026-08-05T05:29:31Z</time>
      </trkpt><trkpt lat="55.6139390" lon="8.1203360"><ele>6.8</ele>
        <time>2026-08-05T05:29:43Z</time>
      </trkpt><trkpt lat="55.6140130" lon="8.1200340"><ele>6.6</ele>
        <time>2026-08-05T05:29:55Z</time>
      </trkpt><trkpt lat="55.6140870" lon="8.1197260"><ele>6.3</ele>
        <time>2026-08-05T05:30:08Z</time>
      </trkpt><trkpt lat="55.6141790" lon="8.1194120"><ele>6.0</ele>
        <time>2026-08-05T05:30:21Z</time>
      </trkpt><trkpt lat="55.6142500" lon="8.1190820"><ele>5.7</ele>
        <time>2026-08-05T05:30:34Z</time>
      </trkpt><trkpt lat="55.6143290" lon="8.1187510"><ele>5.4</ele>
        <time>2026-08-05T05:30:48Z</time>
      </trkpt><trkpt lat="55.6143890" lon="8.1184110"><ele>5.2</ele>
        <time>2026-08-05T05:31:01Z</time>
      </trkpt><trkpt lat="55.6144550" lon="8.1181040"><ele>5.1</ele>
        <time>2026-08-05T05:31:14Z</time>
      </trkpt><trkpt lat="55.6145280" lon="8.1177460"><ele>5.0</ele>
        <time>2026-08-05T05:31:28Z</time>
      </trkpt><trkpt lat="55.6145890" lon="8.1174200"><ele>4.9</ele>
        <time>2026-08-05T05:31:42Z</time>
      </trkpt><trkpt lat="55.6145980" lon="8.1172440"><ele>4.9</ele>
        <time>2026-08-05T05:31:49Z</time>
      </trkpt><trkpt lat="55.6145790" lon="8.1170630"><ele>4.9</ele>
        <time>2026-08-05T05:31:56Z</time>
      </trkpt><trkpt lat="55.6145680" lon="8.1167310"><ele>4.8</ele>
        <time>2026-08-05T05:32:10Z</time>
      </trkpt><trkpt lat="55.6145160" lon="8.1165950"><ele>4.7</ele>
        <time>2026-08-05T05:32:21Z</time>
      </trkpt><trkpt lat="55.6143870" lon="8.1163580"><ele>4.7</ele>
        <time>2026-08-05T05:32:35Z</time>
      </trkpt><trkpt lat="55.6142250" lon="8.1161640"><ele>4.6</ele>
        <time>2026-08-05T05:32:49Z</time>
      </trkpt><trkpt lat="55.6140550" lon="8.1159680"><ele>4.5</ele>
        <time>2026-08-05T05:33:02Z</time>
      </trkpt><trkpt lat="55.6138930" lon="8.1157880"><ele>4.5</ele>
        <time>2026-08-05T05:33:15Z</time>
      </trkpt><trkpt lat="55.6137190" lon="8.1156520"><ele>4.7</ele>
        <time>2026-08-05T05:33:29Z</time>
      </trkpt><trkpt lat="55.6135440" lon="8.1155270"><ele>4.8</ele>
        <time>2026-08-05T05:33:42Z</time>
      </trkpt><trkpt lat="55.6133650" lon="8.1153900"><ele>4.9</ele>
        <time>2026-08-05T05:33:56Z</time>
      </trkpt><trkpt lat="55.6131780" lon="8.1153590"><ele>5.0</ele>
        <time>2026-08-05T05:34:10Z</time>
      </trkpt><trkpt lat="55.6130790" lon="8.1154110"><ele>5.1</ele>
        <time>2026-08-05T05:34:18Z</time>
      </trkpt><trkpt lat="55.6128920" lon="8.1154540"><ele>5.2</ele>
        <time>2026-08-05T05:34:32Z</time>
      </trkpt><trkpt lat="55.6128150" lon="8.1153620"><ele>5.3</ele>
        <time>2026-08-05T05:34:39Z</time>
      </trkpt><trkpt lat="55.6126640" lon="8.1151470"><ele>5.4</ele>
        <time>2026-08-05T05:34:53Z</time>
      </trkpt><trkpt lat="55.6125570" lon="8.1148540"><ele>5.5</ele>
        <time>2026-08-05T05:35:12Z</time>
      </trkpt><trkpt lat="55.6124410" lon="8.1146060"><ele>5.7</ele>
        <time>2026-08-05T05:35:24Z</time>
      </trkpt><trkpt lat="55.6123030" lon="8.1143690"><ele>6.1</ele>
        <time>2026-08-05T05:35:38Z</time>
      </trkpt><trkpt lat="55.6121800" lon="8.1140290"><ele>6.7</ele>
        <time>2026-08-05T05:36:16Z</time>
      </trkpt><trkpt lat="55.6121810" lon="8.1138570"><ele>6.9</ele>
        <time>2026-08-05T05:36:23Z</time>
      </trkpt><trkpt lat="55.6121690" lon="8.1135100"><ele>7.3</ele>
        <time>2026-08-05T05:36:37Z</time>
      </trkpt><trkpt lat="55.6120910" lon="8.1133980"><ele>7.5</ele>
        <time>2026-08-05T05:36:46Z</time>
      </trkpt><trkpt lat="55.6119990" lon="8.1133900"><ele>7.8</ele>
        <time>2026-08-05T05:36:53Z</time>
      </trkpt><trkpt lat="55.6119210" lon="8.1132940"><ele>8.0</ele>
        <time>2026-08-05T05:37:01Z</time>
      </trkpt><trkpt lat="55.6119910" lon="8.1133960"><ele>8.2</ele>
        <time>2026-08-05T05:37:37Z</time>
      </trkpt><trkpt lat="55.6120920" lon="8.1134060"><ele>8.4</ele>
        <time>2026-08-05T05:37:44Z</time>
      </trkpt><trkpt lat="55.6121530" lon="8.1135250"><ele>8.6</ele>
        <time>2026-08-05T05:37:53Z</time>
      </trkpt><trkpt lat="55.6122430" lon="8.1134810"><ele>8.8</ele>
        <time>2026-08-05T05:37:59Z</time>
      </trkpt><trkpt lat="55.6123080" lon="8.1133560"><ele>9.0</ele>
        <time>2026-08-05T05:38:08Z</time>
      </trkpt><trkpt lat="55.6123270" lon="8.1131850"><ele>9.2</ele>
        <time>2026-08-05T05:38:16Z</time>
      </trkpt><trkpt lat="55.6123730" lon="8.1128480"><ele>9.6</ele>
        <time>2026-08-05T05:38:31Z</time>
      </trkpt><trkpt lat="55.6124060" lon="8.1125060"><ele>9.2</ele>
        <time>2026-08-05T05:38:46Z</time>
      </trkpt><trkpt lat="55.6124330" lon="8.1121870"><ele>8.7</ele>
        <time>2026-08-05T05:39:00Z</time>
      </trkpt><trkpt lat="55.6124130" lon="8.1118310"><ele>8.3</ele>
        <time>2026-08-05T05:39:14Z</time>
      </trkpt><trkpt lat="55.6124050" lon="8.1115030"><ele>7.8</ele>
        <time>2026-08-05T05:39:31Z</time>
      </trkpt><trkpt lat="55.6124080" lon="8.1111500"><ele>7.3</ele>
        <time>2026-08-05T05:39:48Z</time>
      </trkpt><trkpt lat="55.6124080" lon="8.1108040"><ele>6.9</ele>
        <time>2026-08-05T05:40:04Z</time>
      </trkpt><trkpt lat="55.6123890" lon="8.1106150"><ele>6.6</ele>
        <time>2026-08-05T05:40:13Z</time>
      </trkpt><trkpt lat="55.6123910" lon="8.1102810"><ele>6.2</ele>
        <time>2026-08-05T05:40:31Z</time>
      </trkpt><trkpt lat="55.6123690" lon="8.1101130"><ele>5.9</ele>
        <time>2026-08-05T05:40:40Z</time>
      </trkpt><trkpt lat="55.6122590" lon="8.1098250"><ele>5.5</ele>
        <time>2026-08-05T05:41:00Z</time>
      </trkpt><trkpt lat="55.6121890" lon="8.1097070"><ele>5.3</ele>
        <time>2026-08-05T05:41:08Z</time>
      </trkpt><trkpt lat="55.6120270" lon="8.1095250"><ele>4.9</ele>
        <time>2026-08-05T05:41:22Z</time>
      </trkpt><trkpt lat="55.6118640" lon="8.1093630"><ele>4.5</ele>
        <time>2026-08-05T05:41:35Z</time>
      </trkpt><trkpt lat="55.6117880" lon="8.1092400"><ele>4.3</ele>
        <time>2026-08-05T05:41:42Z</time>
      </trkpt><trkpt lat="55.6116320" lon="8.1090210"><ele>3.9</ele>
        <time>2026-08-05T05:41:55Z</time>
      </trkpt><trkpt lat="55.6114740" lon="8.1088360"><ele>3.5</ele>
        <time>2026-08-05T05:42:29Z</time>
      </trkpt><trkpt lat="55.6113000" lon="8.1086540"><ele>3.1</ele>
        <time>2026-08-05T05:42:43Z</time>
      </trkpt><trkpt lat="55.6111250" lon="8.1084440"><ele>2.7</ele>
        <time>2026-08-05T05:42:57Z</time>
      </trkpt><trkpt lat="55.6109430" lon="8.1082760"><ele>2.3</ele>
        <time>2026-08-05T05:43:11Z</time>
      </trkpt><trkpt lat="55.6107760" lon="8.1080610"><ele>1.9</ele>
        <time>2026-08-05T05:43:25Z</time>
      </trkpt><trkpt lat="55.6106240" lon="8.1078810"><ele>1.8</ele>
        <time>2026-08-05T05:43:37Z</time>
      </trkpt><trkpt lat="55.6104550" lon="8.1077090"><ele>1.7</ele>
        <time>2026-08-05T05:43:50Z</time>
      </trkpt><trkpt lat="55.6102800" lon="8.1075330"><ele>1.6</ele>
        <time>2026-08-05T05:44:03Z</time>
      </trkpt><trkpt lat="55.6101190" lon="8.1073700"><ele>1.6</ele>
        <time>2026-08-05T05:44:16Z</time>
      </trkpt><trkpt lat="55.6099560" lon="8.1072230"><ele>1.5</ele>
        <time>2026-08-05T05:44:30Z</time>
      </trkpt><trkpt lat="55.6097800" lon="8.1070830"><ele>1.4</ele>
        <time>2026-08-05T05:44:45Z</time>
      </trkpt><trkpt lat="55.6096070" lon="8.1069820"><ele>1.3</ele>
        <time>2026-08-05T05:44:59Z</time>
      </trkpt><trkpt lat="55.6095850" lon="8.1068160"><ele>1.3</ele>
        <time>2026-08-05T05:45:06Z</time>
      </trkpt><trkpt lat="55.6096000" lon="8.1066390"><ele>1.3</ele>
        <time>2026-08-05T05:45:14Z</time>
      </trkpt><trkpt lat="55.6096430" lon="8.1064930"><ele>1.2</ele>
        <time>2026-08-05T05:45:22Z</time>
      </trkpt><trkpt lat="55.6095900" lon="8.1063510"><ele>1.2</ele>
        <time>2026-08-05T05:45:37Z</time>
      </trkpt><trkpt lat="55.6096910" lon="8.1063460"><ele>1.1</ele>
        <time>2026-08-05T05:45:58Z</time>
      </trkpt><trkpt lat="55.6097790" lon="8.1063830"><ele>1.1</ele>
        <time>2026-08-05T05:46:04Z</time>
      </trkpt><trkpt lat="55.6099500" lon="8.1064790"><ele>1.1</ele>
        <time>2026-08-05T05:46:16Z</time>
      </trkpt><trkpt lat="55.6101350" lon="8.1065790"><ele>1.0</ele>
        <time>2026-08-05T05:46:29Z</time>
      </trkpt><trkpt lat="55.6103120" lon="8.1066650"><ele>1.0</ele>
        <time>2026-08-05T05:46:41Z</time>
      </trkpt><trkpt lat="55.6104690" lon="8.1068380"><ele>1.0</ele>
        <time>2026-08-05T05:46:53Z</time>
      </trkpt><trkpt lat="55.6106430" lon="8.1069790"><ele>0.9</ele>
        <time>2026-08-05T05:47:05Z</time>
      </trkpt><trkpt lat="55.6108210" lon="8.1071290"><ele>0.9</ele>
        <time>2026-08-05T05:47:18Z</time>
      </trkpt><trkpt lat="55.6109990" lon="8.1071800"><ele>0.9</ele>
        <time>2026-08-05T05:47:30Z</time>
      </trkpt><trkpt lat="55.6111850" lon="8.1072410"><ele>0.8</ele>
        <time>2026-08-05T05:47:43Z</time>
      </trkpt><trkpt lat="55.6113760" lon="8.1073270"><ele>0.8</ele>
        <time>2026-08-05T05:48:02Z</time>
      </trkpt><trkpt lat="55.6114780" lon="8.1073180"><ele>0.8</ele>
        <time>2026-08-05T05:48:09Z</time>
      </trkpt><trkpt lat="55.6115790" lon="8.1073560"><ele>0.7</ele>
        <time>2026-08-05T05:48:16Z</time>
      </trkpt><trkpt lat="55.6117650" lon="8.1074380"><ele>0.7</ele>
        <time>2026-08-05T05:48:29Z</time>
      </trkpt><trkpt lat="55.6119560" lon="8.1075390"><ele>0.7</ele>
        <time>2026-08-05T05:48:43Z</time>
      </trkpt><trkpt lat="55.6121440" lon="8.1076770"><ele>0.6</ele>
        <time>2026-08-05T05:48:57Z</time>
      </trkpt><trkpt lat="55.6123260" lon="8.1078240"><ele>0.6</ele>
        <time>2026-08-05T05:49:11Z</time>
      </trkpt><trkpt lat="55.6125060" lon="8.1079770"><ele>0.6</ele>
        <time>2026-08-05T05:49:25Z</time>
      </trkpt><trkpt lat="55.6126950" lon="8.1081040"><ele>0.5</ele>
        <time>2026-08-05T05:49:39Z</time>
      </trkpt><trkpt lat="55.6127990" lon="8.1081570"><ele>0.5</ele>
        <time>2026-08-05T05:49:52Z</time>
      </trkpt><trkpt lat="55.6129880" lon="8.1082630"><ele>0.5</ele>
        <time>2026-08-05T05:50:17Z</time>
      </trkpt><trkpt lat="55.6131720" lon="8.1083510"><ele>0.4</ele>
        <time>2026-08-05T05:50:31Z</time>
      </trkpt><trkpt lat="55.6133590" lon="8.1084460"><ele>0.4</ele>
        <time>2026-08-05T05:50:44Z</time>
      </trkpt><trkpt lat="55.6135600" lon="8.1085170"><ele>0.4</ele>
        <time>2026-08-05T05:50:57Z</time>
      </trkpt><trkpt lat="55.6137320" lon="8.1086220"><ele>0.4</ele>
        <time>2026-08-05T05:51:09Z</time>
      </trkpt><trkpt lat="55.6138960" lon="8.1087730"><ele>0.4</ele>
        <time>2026-08-05T05:51:21Z</time>
      </trkpt><trkpt lat="55.6140650" lon="8.1089120"><ele>0.4</ele>
        <time>2026-08-05T05:51:33Z</time>
      </trkpt><trkpt lat="55.6142470" lon="8.1090400"><ele>0.4</ele>
        <time>2026-08-05T05:51:46Z</time>
      </trkpt><trkpt lat="55.6144320" lon="8.1091350"><ele>0.4</ele>
        <time>2026-08-05T05:51:59Z</time>
      </trkpt><trkpt lat="55.6146080" lon="8.1092150"><ele>0.4</ele>
        <time>2026-08-05T05:52:12Z</time>
      </trkpt><trkpt lat="55.6147830" lon="8.1093540"><ele>0.4</ele>
        <time>2026-08-05T05:52:25Z</time>
      </trkpt><trkpt lat="55.6149790" lon="8.1094540"><ele>0.4</ele>
        <time>2026-08-05T05:52:39Z</time>
      </trkpt><trkpt lat="55.6151770" lon="8.1095560"><ele>0.4</ele>
        <time>2026-08-05T05:52:53Z</time>
      </trkpt><trkpt lat="55.6153680" lon="8.1096620"><ele>0.5</ele>
        <time>2026-08-05T05:53:06Z</time>
      </trkpt><trkpt lat="55.6155490" lon="8.1097280"><ele>0.5</ele>
        <time>2026-08-05T05:53:17Z</time>
      </trkpt><trkpt lat="55.6157230" lon="8.1098470"><ele>0.5</ele>
        <time>2026-08-05T05:53:29Z</time>
      </trkpt><trkpt lat="55.6158900" lon="8.1100050"><ele>0.5</ele>
        <time>2026-08-05T05:53:41Z</time>
      </trkpt><trkpt lat="55.6159830" lon="8.1100520"><ele>0.5</ele>
        <time>2026-08-05T05:53:47Z</time>
      </trkpt><trkpt lat="55.6161600" lon="8.1101760"><ele>0.5</ele>
        <time>2026-08-05T05:53:59Z</time>
      </trkpt><trkpt lat="55.6162580" lon="8.1101960"><ele>0.5</ele>
        <time>2026-08-05T05:54:05Z</time>
      </trkpt><trkpt lat="55.6163500" lon="8.1102560"><ele>0.5</ele>
        <time>2026-08-05T05:54:11Z</time>
      </trkpt><trkpt lat="55.6165300" lon="8.1103700"><ele>0.5</ele>
        <time>2026-08-05T05:54:24Z</time>
      </trkpt><trkpt lat="55.6167140" lon="8.1104660"><ele>0.6</ele>
        <time>2026-08-05T05:54:36Z</time>
      </trkpt><trkpt lat="55.6168950" lon="8.1104810"><ele>0.6</ele>
        <time>2026-08-05T05:55:04Z</time>
      </trkpt><trkpt lat="55.6169810" lon="8.1105530"><ele>0.6</ele>
        <time>2026-08-05T05:55:10Z</time>
      </trkpt><trkpt lat="55.6171510" lon="8.1106640"><ele>0.6</ele>
        <time>2026-08-05T05:55:22Z</time>
      </trkpt><trkpt lat="55.6173260" lon="8.1107720"><ele>0.6</ele>
        <time>2026-08-05T05:55:33Z</time>
      </trkpt><trkpt lat="55.6174980" lon="8.1108940"><ele>0.6</ele>
        <time>2026-08-05T05:55:45Z</time>
      </trkpt><trkpt lat="55.6176680" lon="8.1110370"><ele>0.6</ele>
        <time>2026-08-05T05:55:57Z</time>
      </trkpt><trkpt lat="55.6178500" lon="8.1111750"><ele>0.6</ele>
        <time>2026-08-05T05:56:10Z</time>
      </trkpt><trkpt lat="55.6180360" lon="8.1112720"><ele>0.7</ele>
        <time>2026-08-05T05:56:24Z</time>
      </trkpt><trkpt lat="55.6182230" lon="8.1113730"><ele>0.7</ele>
        <time>2026-08-05T05:56:37Z</time>
      </trkpt><trkpt lat="55.6184110" lon="8.1114580"><ele>0.7</ele>
        <time>2026-08-05T05:56:50Z</time>
      </trkpt><trkpt lat="55.6185950" lon="8.1115590"><ele>0.7</ele>
        <time>2026-08-05T05:57:04Z</time>
      </trkpt><trkpt lat="55.6187670" lon="8.1116750"><ele>0.7</ele>
        <time>2026-08-05T05:57:17Z</time>
      </trkpt><trkpt lat="55.6189560" lon="8.1117820"><ele>0.7</ele>
        <time>2026-08-05T05:57:32Z</time>
      </trkpt><trkpt lat="55.6191330" lon="8.1118650"><ele>0.7</ele>
        <time>2026-08-05T05:57:45Z</time>
      </trkpt><trkpt lat="55.6193060" lon="8.1119620"><ele>0.7</ele>
        <time>2026-08-05T05:57:57Z</time>
      </trkpt><trkpt lat="55.6194860" lon="8.1121000"><ele>0.7</ele>
        <time>2026-08-05T05:58:10Z</time>
      </trkpt><trkpt lat="55.6196660" lon="8.1122150"><ele>0.7</ele>
        <time>2026-08-05T05:58:22Z</time>
      </trkpt><trkpt lat="55.6197470" lon="8.1123050"><ele>0.7</ele>
        <time>2026-08-05T05:58:28Z</time>
      </trkpt><trkpt lat="55.6199150" lon="8.1124320"><ele>0.7</ele>
        <time>2026-08-05T05:58:40Z</time>
      </trkpt><trkpt lat="55.6200860" lon="8.1125540"><ele>0.7</ele>
        <time>2026-08-05T05:58:52Z</time>
      </trkpt><trkpt lat="55.6202770" lon="8.1126580"><ele>0.7</ele>
        <time>2026-08-05T05:59:05Z</time>
      </trkpt><trkpt lat="55.6204670" lon="8.1127720"><ele>0.7</ele>
        <time>2026-08-05T05:59:18Z</time>
      </trkpt><trkpt lat="55.6206490" lon="8.1128590"><ele>0.7</ele>
        <time>2026-08-05T05:59:30Z</time>
      </trkpt><trkpt lat="55.6208280" lon="8.1129750"><ele>0.8</ele>
        <time>2026-08-05T05:59:42Z</time>
      </trkpt><trkpt lat="55.6210040" lon="8.1130640"><ele>0.8</ele>
        <time>2026-08-05T05:59:54Z</time>
      </trkpt><trkpt lat="55.6211930" lon="8.1131600"><ele>0.8</ele>
        <time>2026-08-05T06:00:07Z</time>
      </trkpt><trkpt lat="55.6213860" lon="8.1132490"><ele>0.8</ele>
        <time>2026-08-05T06:00:19Z</time>
      </trkpt><trkpt lat="55.6214710" lon="8.1133350"><ele>0.8</ele>
        <time>2026-08-05T06:00:25Z</time>
      </trkpt><trkpt lat="55.6216640" lon="8.1134460"><ele>0.8</ele>
        <time>2026-08-05T06:00:37Z</time>
      </trkpt><trkpt lat="55.6218370" lon="8.1135780"><ele>0.8</ele>
        <time>2026-08-05T06:00:49Z</time>
      </trkpt><trkpt lat="55.6220170" lon="8.1136780"><ele>0.8</ele>
        <time>2026-08-05T06:01:01Z</time>
      </trkpt><trkpt lat="55.6221930" lon="8.1137830"><ele>0.9</ele>
        <time>2026-08-05T06:01:13Z</time>
      </trkpt><trkpt lat="55.6223840" lon="8.1138730"><ele>0.9</ele>
        <time>2026-08-05T06:01:26Z</time>
      </trkpt><trkpt lat="55.6225630" lon="8.1139720"><ele>0.9</ele>
        <time>2026-08-05T06:01:38Z</time>
      </trkpt><trkpt lat="55.6227490" lon="8.1140300"><ele>0.9</ele>
        <time>2026-08-05T06:01:50Z</time>
      </trkpt><trkpt lat="55.6229330" lon="8.1140930"><ele>0.9</ele>
        <time>2026-08-05T06:02:02Z</time>
      </trkpt><trkpt lat="55.6231170" lon="8.1141870"><ele>0.9</ele>
        <time>2026-08-05T06:02:14Z</time>
      </trkpt><trkpt lat="55.6232940" lon="8.1143030"><ele>0.9</ele>
        <time>2026-08-05T06:02:26Z</time>
      </trkpt><trkpt lat="55.6234720" lon="8.1144040"><ele>0.9</ele>
        <time>2026-08-05T06:02:38Z</time>
      </trkpt><trkpt lat="55.6236630" lon="8.1144740"><ele>0.9</ele>
        <time>2026-08-05T06:02:51Z</time>
      </trkpt><trkpt lat="55.6238580" lon="8.1145420"><ele>0.8</ele>
        <time>2026-08-05T06:03:03Z</time>
      </trkpt><trkpt lat="55.6240490" lon="8.1146100"><ele>0.8</ele>
        <time>2026-08-05T06:03:15Z</time>
      </trkpt><trkpt lat="55.6242320" lon="8.1146860"><ele>0.8</ele>
        <time>2026-08-05T06:03:27Z</time>
      </trkpt><trkpt lat="55.6244150" lon="8.1147610"><ele>0.8</ele>
        <time>2026-08-05T06:03:39Z</time>
      </trkpt><trkpt lat="55.6246030" lon="8.1148630"><ele>0.8</ele>
        <time>2026-08-05T06:03:51Z</time>
      </trkpt><trkpt lat="55.6247930" lon="8.1149800"><ele>0.7</ele>
        <time>2026-08-05T06:04:04Z</time>
      </trkpt><trkpt lat="55.6249640" lon="8.1151230"><ele>0.7</ele>
        <time>2026-08-05T06:04:16Z</time>
      </trkpt><trkpt lat="55.6251230" lon="8.1153030"><ele>0.8</ele>
        <time>2026-08-05T06:04:28Z</time>
      </trkpt><trkpt lat="55.6252510" lon="8.1155580"><ele>0.8</ele>
        <time>2026-08-05T06:04:41Z</time>
      </trkpt><trkpt lat="55.6253940" lon="8.1158030"><ele>0.9</ele>
        <time>2026-08-05T06:04:55Z</time>
      </trkpt><trkpt lat="55.6255470" lon="8.1160380"><ele>1.0</ele>
        <time>2026-08-05T06:05:09Z</time>
      </trkpt><trkpt lat="55.6256570" lon="8.1163170"><ele>1.1</ele>
        <time>2026-08-05T06:05:23Z</time>
      </trkpt><trkpt lat="55.6257870" lon="8.1165830"><ele>1.2</ele>
        <time>2026-08-05T06:05:37Z</time>
      </trkpt><trkpt lat="55.6258750" lon="8.1166420"><ele>1.2</ele>
        <time>2026-08-05T06:05:43Z</time>
      </trkpt><trkpt lat="55.6260740" lon="8.1167210"><ele>1.3</ele>
        <time>2026-08-05T06:05:57Z</time>
      </trkpt><trkpt lat="55.6262490" lon="8.1168250"><ele>1.4</ele>
        <time>2026-08-05T06:06:09Z</time>
      </trkpt><trkpt lat="55.6264240" lon="8.1169650"><ele>1.5</ele>
        <time>2026-08-05T06:06:22Z</time>
      </trkpt><trkpt lat="55.6265880" lon="8.1171540"><ele>1.9</ele>
        <time>2026-08-05T06:06:35Z</time>
      </trkpt><trkpt lat="55.6267550" lon="8.1173470"><ele>2.2</ele>
        <time>2026-08-05T06:06:49Z</time>
      </trkpt><trkpt lat="55.6268180" lon="8.1174750"><ele>2.4</ele>
        <time>2026-08-05T06:06:55Z</time>
      </trkpt><trkpt lat="55.6269520" lon="8.1177020"><ele>2.7</ele>
        <time>2026-08-05T06:07:07Z</time>
      </trkpt><trkpt lat="55.6270780" lon="8.1179710"><ele>3.1</ele>
        <time>2026-08-05T06:07:20Z</time>
      </trkpt><trkpt lat="55.6271500" lon="8.1182910"><ele>3.4</ele>
        <time>2026-08-05T06:07:33Z</time>
      </trkpt><trkpt lat="55.6271640" lon="8.1186130"><ele>3.7</ele>
        <time>2026-08-05T06:07:45Z</time>
      </trkpt><trkpt lat="55.6271940" lon="8.1189360"><ele>4.1</ele>
        <time>2026-08-05T06:07:57Z</time>
      </trkpt><trkpt lat="55.6272100" lon="8.1192630"><ele>4.4</ele>
        <time>2026-08-05T06:08:09Z</time>
      </trkpt><trkpt lat="55.6272210" lon="8.1196110"><ele>4.7</ele>
        <time>2026-08-05T06:08:27Z</time>
      </trkpt><trkpt lat="55.6272400" lon="8.1199450"><ele>4.9</ele>
        <time>2026-08-05T06:08:39Z</time>
      </trkpt><trkpt lat="55.6272460" lon="8.1202810"><ele>5.1</ele>
        <time>2026-08-05T06:08:52Z</time>
      </trkpt><trkpt lat="55.6272270" lon="8.1206080"><ele>5.3</ele>
        <time>2026-08-05T06:09:04Z</time>
      </trkpt><trkpt lat="55.6272120" lon="8.1209570"><ele>5.5</ele>
        <time>2026-08-05T06:09:17Z</time>
      </trkpt><trkpt lat="55.6271650" lon="8.1211110"><ele>5.6</ele>
        <time>2026-08-05T06:09:23Z</time>
      </trkpt><trkpt lat="55.6270780" lon="8.1214160"><ele>5.8</ele>
        <time>2026-08-05T06:09:36Z</time>
      </trkpt><trkpt lat="55.6270380" lon="8.1217230"><ele>5.9</ele>
        <time>2026-08-05T06:09:53Z</time>
      </trkpt><trkpt lat="55.6270040" lon="8.1220560"><ele>6.1</ele>
        <time>2026-08-05T06:10:07Z</time>
      </trkpt><trkpt lat="55.6269620" lon="8.1224030"><ele>6.3</ele>
        <time>2026-08-05T06:10:22Z</time>
      </trkpt><trkpt lat="55.6269240" lon="8.1227350"><ele>6.4</ele>
        <time>2026-08-05T06:10:35Z</time>
      </trkpt><trkpt lat="55.6268470" lon="8.1230640"><ele>6.4</ele>
        <time>2026-08-05T06:10:49Z</time>
      </trkpt><trkpt lat="55.6267360" lon="8.1233640"><ele>6.3</ele>
        <time>2026-08-05T06:11:04Z</time>
      </trkpt><trkpt lat="55.6266040" lon="8.1236160"><ele>6.2</ele>
        <time>2026-08-05T06:11:17Z</time>
      </trkpt><trkpt lat="55.6266120" lon="8.1237970"><ele>6.2</ele>
        <time>2026-08-05T06:11:29Z</time>
      </trkpt><trkpt lat="55.6267020" lon="8.1239020"><ele>6.1</ele>
        <time>2026-08-05T06:11:37Z</time>
      </trkpt><trkpt lat="55.6264830" lon="8.1238620"><ele>6.0</ele>
        <time>2026-08-05T06:19:03Z</time>
      </trkpt><trkpt lat="55.6264230" lon="8.1239980"><ele>6.0</ele>
        <time>2026-08-05T06:19:09Z</time>
      </trkpt><trkpt lat="55.6262980" lon="8.1242470"><ele>5.9</ele>
        <time>2026-08-05T06:19:21Z</time>
      </trkpt><trkpt lat="55.6261670" lon="8.1245220"><ele>5.8</ele>
        <time>2026-08-05T06:19:35Z</time>
      </trkpt><trkpt lat="55.6260420" lon="8.1247840"><ele>5.8</ele>
        <time>2026-08-05T06:19:48Z</time>
      </trkpt><trkpt lat="55.6259360" lon="8.1250620"><ele>5.8</ele>
        <time>2026-08-05T06:20:00Z</time>
      </trkpt><trkpt lat="55.6258230" lon="8.1253210"><ele>5.8</ele>
        <time>2026-08-05T06:20:12Z</time>
      </trkpt><trkpt lat="55.6257120" lon="8.1256080"><ele>5.8</ele>
        <time>2026-08-05T06:20:25Z</time>
      </trkpt><trkpt lat="55.6255960" lon="8.1258800"><ele>5.9</ele>
        <time>2026-08-05T06:20:38Z</time>
      </trkpt><trkpt lat="55.6256470" lon="8.1260150"><ele>5.9</ele>
        <time>2026-08-05T06:20:45Z</time>
      </trkpt><trkpt lat="55.6257240" lon="8.1261010"><ele>5.9</ele>
        <time>2026-08-05T06:20:51Z</time>
      </trkpt><trkpt lat="55.6257810" lon="8.1262440"><ele>5.9</ele>
        <time>2026-08-05T06:20:58Z</time>
      </trkpt><trkpt lat="55.6257560" lon="8.1264260"><ele>5.9</ele>
        <time>2026-08-05T06:21:05Z</time>
      </trkpt><trkpt lat="55.6257130" lon="8.1265720"><ele>6.0</ele>
        <time>2026-08-05T06:21:11Z</time>
      </trkpt><trkpt lat="55.6256610" lon="8.1268910"><ele>6.0</ele>
        <time>2026-08-05T06:21:23Z</time>
      </trkpt><trkpt lat="55.6256620" lon="8.1272330"><ele>6.0</ele>
        <time>2026-08-05T06:21:36Z</time>
      </trkpt><trkpt lat="55.6256960" lon="8.1273940"><ele>6.1</ele>
        <time>2026-08-05T06:21:42Z</time>
      </trkpt><trkpt lat="55.6257780" lon="8.1277300"><ele>6.0</ele>
        <time>2026-08-05T06:21:56Z</time>
      </trkpt><trkpt lat="55.6258430" lon="8.1280380"><ele>5.9</ele>
        <time>2026-08-05T06:22:08Z</time>
      </trkpt><trkpt lat="55.6259200" lon="8.1283610"><ele>5.8</ele>
        <time>2026-08-05T06:22:21Z</time>
      </trkpt><trkpt lat="55.6260310" lon="8.1286320"><ele>5.6</ele>
        <time>2026-08-05T06:22:33Z</time>
      </trkpt><trkpt lat="55.6261460" lon="8.1288950"><ele>5.5</ele>
        <time>2026-08-05T06:22:46Z</time>
      </trkpt><trkpt lat="55.6262500" lon="8.1291750"><ele>5.4</ele>
        <time>2026-08-05T06:22:57Z</time>
      </trkpt><trkpt lat="55.6263040" lon="8.1295010"><ele>5.3</ele>
        <time>2026-08-05T06:23:09Z</time>
      </trkpt><trkpt lat="55.6263030" lon="8.1298220"><ele>5.2</ele>
        <time>2026-08-05T06:23:21Z</time>
      </trkpt><trkpt lat="55.6262920" lon="8.1301500"><ele>5.1</ele>
        <time>2026-08-05T06:23:33Z</time>
      </trkpt><trkpt lat="55.6263230" lon="8.1303090"><ele>5.0</ele>
        <time>2026-08-05T06:23:39Z</time>
      </trkpt><trkpt lat="55.6264180" lon="8.1305980"><ele>4.9</ele>
        <time>2026-08-05T06:23:51Z</time>
      </trkpt><trkpt lat="55.6265800" lon="8.1307810"><ele>4.9</ele>
        <time>2026-08-05T06:24:04Z</time>
      </trkpt><trkpt lat="55.6267380" lon="8.1309770"><ele>4.9</ele>
        <time>2026-08-05T06:24:17Z</time>
      </trkpt><trkpt lat="55.6267940" lon="8.1311300"><ele>4.9</ele>
        <time>2026-08-05T06:24:24Z</time>
      </trkpt><trkpt lat="55.6268410" lon="8.1314180"><ele>4.9</ele>
        <time>2026-08-05T06:24:37Z</time>
      </trkpt><trkpt lat="55.6268180" lon="8.1315880"><ele>4.9</ele>
        <time>2026-08-05T06:24:44Z</time>
      </trkpt><trkpt lat="55.6267540" lon="8.1319110"><ele>4.9</ele>
        <time>2026-08-05T06:24:57Z</time>
      </trkpt><trkpt lat="55.6266840" lon="8.1320260"><ele>4.9</ele>
        <time>2026-08-05T06:25:02Z</time>
      </trkpt><trkpt lat="55.6266350" lon="8.1321850"><ele>4.9</ele>
        <time>2026-08-05T06:25:09Z</time>
      </trkpt><trkpt lat="55.6266160" lon="8.1323480"><ele>4.9</ele>
        <time>2026-08-05T06:25:18Z</time>
      </trkpt><trkpt lat="55.6265280" lon="8.1326150"><ele>4.9</ele>
        <time>2026-08-05T06:25:31Z</time>
      </trkpt><trkpt lat="55.6264380" lon="8.1325920"><ele>4.9</ele>
        <time>2026-08-05T06:25:37Z</time>
      </trkpt><trkpt lat="55.6262460" lon="8.1325360"><ele>4.9</ele>
        <time>2026-08-05T06:25:50Z</time>
      </trkpt><trkpt lat="55.6260590" lon="8.1325990"><ele>4.9</ele>
        <time>2026-08-05T06:26:04Z</time>
      </trkpt><trkpt lat="55.6260380" lon="8.1327780"><ele>4.9</ele>
        <time>2026-08-05T06:26:11Z</time>
      </trkpt><trkpt lat="55.6259630" lon="8.1328720"><ele>4.9</ele>
        <time>2026-08-05T06:26:18Z</time>
      </trkpt><trkpt lat="55.6258780" lon="8.1327860"><ele>4.9</ele>
        <time>2026-08-05T06:26:25Z</time>
      </trkpt></trkseg>
  </trk>
</gpx>